createdAt,value
2022-09-12T00:01:16.074Z,63.00
2022-09-12T00:03:43.817Z,63.30
2022-09-12T00:06:23.172Z,63.47
2022-09-12T00:08:54.507Z,63.38
2022-09-12T00:11:21.952Z,63.52
2022-09-12T00:13:49.344Z,63.56
2022-09-12T00:16:23.185Z,63.29
2022-09-12T00:18:51.388Z,63.42
2022-09-12T00:21:19.448Z,63.63
2022-09-12T00:23:47.268Z,63.54
2022-09-12T00:26:14.902Z,63.71
2022-09-12T00:28:42.373Z,63.56
2022-09-12T00:31:13.306Z,63.30
2022-09-12T00:33:40.627Z,63.27
2022-09-12T00:36:12.938Z,63.11
2022-09-12T00:38:42.151Z,63.36
2022-09-12T00:41:33.413Z,63.03
2022-09-12T00:44:03.155Z,63.18
2022-09-12T00:46:54.362Z,62.93
2022-09-12T00:49:41.362Z,62.80
2022-09-12T00:52:16.732Z,62.51
2022-09-12T00:54:49.299Z,62.80
2022-09-12T00:57:18.141Z,62.74
2022-09-12T00:59:51.797Z,62.46
2022-09-12T01:02:19.382Z,62.83
2022-09-12T01:04:47.940Z,62.65
2022-09-12T01:07:15.473Z,62.80
2022-09-12T01:09:45.741Z,62.64
2022-09-12T01:12:15.242Z,63.08
2022-09-12T01:14:43.156Z,63.07
2022-09-12T01:17:15.412Z,63.12
2022-09-12T01:20:29.262Z,62.72
2022-09-12T01:23:13.948Z,62.63
2022-09-12T01:26:32.647Z,62.77
2022-09-12T01:29:09.921Z,62.58
2022-09-12T01:32:35.663Z,62.99
2022-09-12T01:35:16.802Z,62.24
2022-09-12T01:38:11.855Z,62.80
2022-09-12T01:40:58.157Z,62.58
2022-09-12T01:44:13.525Z,63.10
2022-09-12T01:47:10.152Z,63.06
2022-09-12T01:50:06.977Z,62.68
2022-09-12T01:52:54.466Z,62.80
2022-09-12T01:55:30.508Z,62.93
2022-09-12T01:58:15.614Z,62.77
2022-09-12T02:00:54.591Z,62.98
2022-09-12T02:03:29.561Z,62.61
2022-09-12T02:06:22.525Z,62.82
2022-09-12T02:08:58.559Z,62.97
2022-09-12T02:11:25.603Z,62.61
2022-09-12T02:14:21.687Z,63.46
2022-09-12T02:16:58.840Z,63.22
2022-09-12T02:19:34.520Z,63.09
2022-09-12T02:22:05.186Z,62.95
2022-09-12T02:24:40.306Z,63.31
2022-09-12T02:27:16.724Z,63.49
2022-09-12T02:29:46.112Z,63.51
2022-09-12T02:32:29.938Z,63.33
2022-09-12T02:35:07.443Z,63.33
2022-09-12T02:38:25.330Z,63.50
2022-09-12T02:40:52.963Z,63.78
2022-09-12T02:43:19.748Z,63.91
2022-09-12T02:45:46.750Z,63.82
2022-09-12T02:48:28.164Z,63.94
2022-09-12T02:50:55.123Z,64.00
2022-09-12T02:53:23.264Z,64.26
2022-09-12T02:55:51.610Z,64.25
2022-09-12T02:58:24.123Z,64.44
2022-09-12T03:01:14.999Z,64.34
2022-09-12T03:04:28.840Z,64.44
2022-09-12T03:07:16.570Z,64.72
2022-09-12T03:10:11.862Z,64.79
2022-09-12T03:12:47.895Z,65.00
2022-09-12T03:16:05.131Z,65.71
2022-09-12T03:18:57.686Z,65.53
2022-09-12T03:21:55.418Z,65.34
2022-09-12T03:24:40.205Z,65.44
2022-09-12T03:27:21.267Z,64.97
2022-09-12T03:29:49.815Z,65.15
2022-09-12T03:32:16.668Z,65.45
2022-09-12T03:34:43.434Z,65.58
2022-09-12T03:37:10.422Z,65.20
2022-09-12T03:39:37.229Z,65.78
2022-09-12T03:42:04.391Z,65.69
2022-09-12T03:44:31.329Z,65.87
2022-09-12T03:46:58.126Z,65.86
2022-09-12T03:49:24.999Z,65.87
2022-09-12T03:51:51.927Z,66.09
2022-09-12T03:54:18.782Z,66.15
2022-09-12T03:56:45.572Z,66.54
2022-09-12T03:59:12.542Z,66.21
2022-09-12T04:01:39.397Z,66.40
2022-09-12T04:04:06.315Z,65.92
2022-09-12T04:06:33.430Z,66.02
2022-09-12T04:09:00.235Z,66.30
2022-09-12T04:11:27.183Z,66.35
2022-09-12T04:13:54.390Z,66.28
2022-09-12T04:16:21.493Z,66.54
2022-09-12T04:18:48.541Z,66.49
2022-09-12T04:21:19.536Z,66.72
2022-09-12T04:23:46.345Z,66.63
2022-09-12T04:26:14.780Z,66.57
2022-09-12T04:28:41.916Z,66.70
2022-09-12T04:31:15.571Z,66.70
2022-09-12T04:33:42.732Z,66.79
2022-09-12T04:36:16.669Z,66.62
2022-09-12T04:38:47.256Z,66.58
2022-09-12T04:41:27.401Z,66.63
2022-09-12T04:43:58.925Z,66.79
2022-09-12T04:46:26.651Z,66.67
2022-09-12T04:48:56.819Z,66.74
2022-09-12T04:51:32.139Z,66.71
2022-09-12T04:54:03.042Z,66.44
2022-09-12T04:56:31.121Z,66.44
2022-09-12T04:59:00.798Z,66.25
2022-09-12T05:01:30.511Z,66.14
2022-09-12T05:03:59.977Z,66.42
2022-09-12T05:06:34.779Z,66.50
2022-09-12T05:09:04.039Z,66.38
2022-09-12T05:12:02.513Z,66.05
2022-09-12T05:14:25.721Z,66.25
2022-09-12T05:16:52.634Z,66.28
2022-09-12T05:19:19.489Z,66.38
2022-09-12T05:21:46.518Z,66.32
2022-09-12T05:24:13.345Z,66.69
2022-09-12T05:26:40.184Z,66.49
2022-09-12T05:29:07.321Z,66.10
2022-09-12T05:31:35.008Z,66.40
2022-09-12T05:34:04.656Z,66.15
2022-09-12T05:36:32.027Z,65.86
2022-09-12T05:39:02.371Z,65.98
2022-09-12T05:41:32.919Z,66.13
2022-09-12T05:44:04.712Z,66.21
2022-09-12T05:46:38.328Z,66.12
2022-09-12T05:49:09.943Z,65.82
2022-09-12T05:51:40.558Z,66.11
2022-09-12T05:54:11.838Z,66.17
2022-09-12T05:56:42.969Z,65.88
2022-09-12T05:59:15.920Z,65.75
2022-09-12T06:02:01.941Z,65.92
2022-09-12T06:04:30.640Z,66.07
2022-09-12T06:06:57.578Z,65.79
2022-09-12T06:09:25.774Z,65.96
2022-09-12T06:11:52.906Z,66.16
2022-09-12T06:14:20.031Z,65.58
2022-09-12T06:16:47.630Z,65.70
2022-09-12T06:19:21.820Z,65.73
2022-09-12T06:21:50.092Z,65.82
2022-09-12T06:24:19.888Z,65.96
2022-09-12T06:26:48.825Z,65.77
2022-09-12T06:29:16.600Z,65.71
2022-09-12T06:31:44.328Z,65.42
2022-09-12T06:34:14.608Z,65.08
2022-09-12T06:36:46.047Z,65.65
2022-09-12T06:39:17.014Z,65.51
2022-09-12T06:41:44.686Z,65.14
2022-09-12T06:44:21.113Z,65.27
2022-09-12T06:46:48.736Z,65.20
2022-09-12T06:49:17.539Z,64.96
2022-09-12T06:51:44.918Z,65.16
2022-09-12T06:54:15.565Z,64.90
2022-09-12T06:56:43.188Z,65.58
2022-09-12T06:59:10.719Z,65.27
2022-09-12T07:01:38.294Z,65.46
2022-09-12T07:04:05.915Z,65.49
2022-09-12T07:06:44.659Z,65.09
2022-09-12T07:09:18.024Z,64.75
2022-09-12T07:11:46.743Z,64.97
2022-09-12T07:14:15.001Z,65.25
2022-09-12T07:16:42.848Z,65.11
2022-09-12T07:19:10.808Z,65.08
2022-09-12T07:21:40.531Z,64.82
2022-09-12T07:24:11.591Z,64.96
2022-09-12T07:26:40.766Z,64.74
2022-09-12T07:29:36.924Z,64.58
2022-09-12T07:32:06.915Z,64.84
2022-09-12T07:34:34.949Z,64.86
2022-09-12T07:37:02.128Z,64.76
2022-09-12T07:39:29.311Z,64.70
2022-09-12T07:41:56.087Z,64.59
2022-09-12T07:44:23.678Z,64.67
2022-09-12T07:46:50.903Z,64.62
2022-09-12T07:49:17.854Z,64.90
2022-09-12T07:51:44.711Z,64.68
2022-09-12T07:54:11.973Z,64.71
2022-09-12T07:56:39.638Z,64.73
2022-09-12T07:59:08.247Z,64.80
2022-09-12T08:01:35.829Z,64.51
2022-09-12T08:04:05.058Z,64.59
2022-09-12T08:06:35.985Z,64.55
2022-09-12T08:09:05.307Z,64.30
2022-09-12T08:11:32.586Z,64.45
2022-09-12T08:14:01.761Z,64.58
2022-09-12T08:16:32.242Z,64.11
2022-09-12T08:19:04.480Z,64.19
2022-09-12T08:21:33.881Z,64.71
2022-09-12T08:24:05.938Z,64.42
2022-09-12T08:26:36.039Z,64.39
2022-09-12T08:29:04.411Z,64.25
2022-09-12T08:31:36.501Z,63.51
2022-09-12T08:34:06.005Z,63.85
2022-09-12T08:36:33.366Z,63.33
2022-09-12T08:39:04.839Z,63.03
2022-09-12T08:41:39.914Z,62.98
2022-09-12T08:44:19.020Z,62.61
2022-09-12T08:47:13.780Z,62.73
2022-09-12T08:50:08.384Z,62.75
2022-09-12T08:52:52.057Z,62.36
2022-09-12T08:55:40.676Z,62.22
2022-09-12T08:58:22.753Z,61.79
2022-09-12T09:00:59.501Z,61.49
2022-09-12T09:03:52.478Z,61.39
2022-09-12T09:06:34.620Z,60.41
2022-09-12T09:09:24.821Z,60.72
2022-09-12T09:12:12.830Z,60.51
2022-09-12T09:14:57.002Z,59.96
2022-09-12T09:17:46.021Z,59.98
2022-09-12T09:20:23.654Z,58.95
2022-09-12T09:23:06.253Z,59.24
2022-09-12T09:26:17.160Z,58.78
2022-09-12T09:28:54.216Z,58.48
2022-09-12T09:31:28.417Z,58.72
2022-09-12T09:33:55.632Z,57.43
2022-09-12T09:36:42.086Z,57.64
2022-09-12T09:39:29.602Z,57.95
2022-09-12T09:42:36.318Z,57.47
2022-09-12T09:45:16.137Z,57.35
2022-09-12T09:47:58.188Z,57.06
2022-09-12T09:50:25.435Z,56.94
2022-09-12T09:52:56.977Z,56.63
2022-09-12T09:55:31.009Z,57.01
2022-09-12T09:57:58.040Z,56.75
2022-09-12T10:00:36.431Z,56.44
2022-09-12T10:03:13.496Z,56.36
2022-09-12T10:05:50.041Z,55.85
2022-09-12T10:08:32.784Z,55.72
2022-09-12T10:11:19.375Z,55.12
2022-09-12T10:13:57.460Z,54.90
2022-09-12T10:16:31.815Z,54.19
2022-09-12T10:19:02.277Z,53.49
2022-09-12T10:21:56.502Z,53.47
2022-09-12T10:24:30.613Z,52.50
2022-09-12T10:27:08.928Z,52.78
2022-09-12T10:29:48.478Z,53.90
2022-09-12T10:32:34.684Z,53.36
2022-09-12T10:35:38.721Z,53.19
2022-09-12T10:38:14.228Z,52.61
2022-09-12T10:40:44.257Z,52.67
2022-09-12T10:43:34.391Z,51.63
2022-09-12T10:46:29.383Z,52.19
2022-09-12T10:49:38.148Z,52.86
2022-09-12T10:52:24.054Z,52.21
2022-09-12T10:54:52.243Z,52.42
2022-09-12T10:57:25.516Z,49.53
2022-09-12T11:00:17.801Z,49.34
2022-09-12T11:03:53.079Z,49.34
2022-09-12T11:06:39.881Z,48.35
2022-09-12T11:09:32.126Z,49.58
2022-09-12T11:12:25.095Z,48.67
2022-09-12T11:15:19.637Z,48.39
2022-09-12T11:18:38.143Z,49.09
2022-09-12T11:21:57.648Z,49.75
2022-09-12T11:24:39.775Z,50.32
2022-09-12T11:27:44.865Z,51.02
2022-09-12T11:30:16.440Z,51.29
2022-09-12T11:33:26.285Z,50.91
2022-09-12T11:35:55.598Z,50.88
2022-09-12T11:38:51.033Z,50.74
2022-09-12T11:41:26.459Z,50.24
2022-09-12T11:44:22.234Z,50.22
2022-09-12T11:46:51.889Z,49.55
2022-09-12T11:49:35.408Z,50.02
2022-09-12T11:52:29.673Z,50.28
2022-09-12T11:55:08.538Z,49.69
2022-09-12T11:57:56.160Z,49.55
2022-09-12T12:00:36.501Z,49.06
2022-09-12T12:03:13.851Z,49.08
2022-09-12T12:05:54.421Z,48.69
2022-09-12T12:08:24.080Z,48.94
2022-09-12T12:10:57.492Z,48.64
2022-09-12T12:13:45.819Z,48.44
2022-09-12T12:16:33.660Z,48.50
2022-09-12T12:19:07.516Z,47.97
2022-09-12T12:21:44.076Z,47.57
2022-09-12T12:24:26.694Z,48.12
2022-09-12T12:27:20.725Z,46.50
2022-09-12T12:29:48.160Z,47.20
2022-09-12T12:32:20.194Z,47.59
2022-09-12T12:34:48.176Z,47.64
2022-09-12T12:37:19.890Z,47.30
2022-09-12T12:39:48.318Z,47.72
2022-09-12T12:42:36.437Z,47.36
2022-09-12T12:45:13.046Z,47.42
2022-09-12T12:47:45.976Z,46.93
2022-09-12T12:50:16.796Z,45.88
2022-09-12T12:53:06.888Z,46.26
2022-09-12T12:55:47.290Z,46.13
2022-09-12T12:58:40.970Z,46.82
2022-09-12T13:01:23.043Z,46.58
2022-09-12T13:04:02.656Z,46.22
2022-09-12T13:06:39.655Z,46.04
2022-09-12T13:09:19.040Z,46.62
2022-09-12T13:11:47.111Z,46.53
2022-09-12T13:14:51.907Z,46.37
2022-09-12T13:17:44.798Z,45.80
2022-09-12T13:20:30.751Z,45.71
2022-09-12T13:22:58.635Z,44.40
2022-09-12T13:25:35.357Z,44.86
2022-09-12T13:28:11.568Z,44.79
2022-09-12T13:31:17.160Z,44.12
2022-09-12T13:34:01.516Z,45.35
2022-09-12T13:36:55.932Z,45.48
2022-09-12T13:39:35.072Z,45.04
2022-09-12T13:42:29.329Z,44.33
2022-09-12T13:45:24.052Z,44.84
2022-09-12T13:48:04.621Z,44.66
2022-09-12T13:50:50.932Z,44.03
2022-09-12T13:53:24.210Z,43.61
2022-09-12T13:55:59.682Z,44.61
2022-09-12T13:58:35.353Z,43.88
2022-09-12T14:01:46.443Z,43.68
2022-09-12T14:04:45.623Z,43.60
2022-09-12T14:07:21.256Z,43.19
2022-09-12T14:10:01.062Z,43.66
2022-09-12T14:12:43.598Z,43.43
2022-09-12T14:15:25.262Z,43.27
2022-09-12T14:17:59.678Z,43.79
2022-09-12T14:20:42.054Z,44.36
2022-09-12T14:23:32.508Z,44.17
2022-09-12T14:26:09.803Z,43.92
2022-09-12T14:28:40.928Z,43.41
2022-09-12T14:31:28.722Z,43.93
2022-09-12T14:34:18.191Z,43.41
2022-09-12T14:36:56.326Z,44.16
2022-09-12T14:39:33.572Z,44.26
2022-09-12T14:42:27.115Z,44.19
2022-09-12T14:45:06.337Z,44.36
2022-09-12T14:47:42.836Z,43.29
2022-09-12T14:50:26.324Z,43.89
2022-09-12T14:53:38.163Z,43.53
2022-09-12T14:56:05.437Z,43.14
2022-09-12T14:58:33.409Z,43.68
2022-09-12T15:01:05.594Z,43.32
2022-09-12T15:03:51.855Z,44.17
2022-09-12T15:06:38.335Z,44.13
2022-09-12T15:09:23.923Z,43.87
2022-09-12T15:11:51.013Z,44.38
2022-09-12T15:14:18.843Z,44.54
2022-09-12T15:16:45.781Z,43.58
2022-09-12T15:19:13.479Z,45.09
2022-09-12T15:21:40.744Z,43.35
2022-09-12T15:24:09.219Z,43.52
2022-09-12T15:26:36.491Z,44.21
2022-09-12T15:29:03.926Z,43.99
2022-09-12T15:31:32.588Z,43.48
2022-09-12T15:34:02.536Z,43.21
2022-09-12T15:36:30.416Z,43.83
2022-09-12T15:38:58.714Z,43.36
2022-09-12T15:41:37.007Z,43.46
2022-09-12T15:44:12.534Z,43.53
2022-09-12T15:46:41.478Z,43.71
2022-09-12T15:49:08.591Z,43.09
2022-09-12T15:51:35.851Z,42.56
2022-09-12T15:54:04.490Z,43.51
2022-09-12T15:56:31.737Z,43.79
2022-09-12T15:59:00.123Z,43.22
2022-09-12T16:02:08.546Z,42.71
2022-09-12T16:04:36.864Z,43.46
2022-09-12T16:07:39.270Z,43.79
2022-09-12T16:10:27.759Z,45.06
2022-09-12T16:12:55.714Z,45.41
2022-09-12T16:15:26.001Z,45.55
2022-09-12T16:17:53.498Z,45.65
2022-09-12T16:20:21.909Z,45.01
2022-09-12T16:22:49.455Z,44.92
2022-09-12T16:25:17.468Z,44.64
2022-09-12T16:27:48.683Z,44.23
2022-09-12T16:30:16.111Z,44.75
2022-09-12T16:32:46.390Z,44.10
2022-09-12T16:35:14.664Z,44.00
2022-09-12T16:37:42.324Z,44.64
2022-09-12T16:40:10.301Z,44.61
2022-09-12T16:42:40.725Z,45.55
2022-09-12T16:45:11.423Z,45.66
2022-09-12T16:47:39.428Z,44.50
2022-09-12T16:50:07.708Z,45.43
2022-09-12T16:52:38.592Z,45.58
2022-09-12T16:55:07.148Z,45.57
2022-09-12T16:57:36.067Z,45.07
2022-09-12T17:00:05.056Z,45.35
2022-09-12T17:02:33.763Z,45.42
2022-09-12T17:05:00.794Z,45.95
2022-09-12T17:07:31.422Z,45.70
2022-09-12T17:10:06.040Z,45.74
2022-09-12T17:12:36.074Z,45.87
2022-09-12T17:15:04.126Z,46.27
2022-09-12T17:17:32.375Z,46.44
2022-09-12T17:19:59.597Z,46.67
2022-09-12T17:22:28.137Z,46.66
2022-09-12T17:24:55.239Z,46.94
2022-09-12T17:27:22.561Z,46.96
2022-09-12T17:29:52.595Z,47.85
2022-09-12T17:32:23.728Z,47.47
2022-09-12T17:34:51.853Z,47.76
2022-09-12T17:37:26.638Z,47.93
2022-09-12T17:39:58.215Z,47.72
2022-09-12T17:42:27.502Z,47.91
2022-09-12T17:44:59.863Z,48.03
2022-09-12T17:47:29.707Z,47.88
2022-09-12T17:50:14.776Z,47.63
2022-09-12T17:52:48.209Z,47.97
2022-09-12T17:55:15.420Z,48.30
2022-09-12T17:57:44.291Z,48.10
2022-09-12T18:00:12.867Z,48.34
2022-09-12T18:02:46.877Z,48.50
2022-09-12T18:05:16.139Z,48.69
2022-09-12T18:07:51.202Z,48.58
2022-09-12T18:10:18.805Z,48.69
2022-09-12T18:12:52.280Z,48.76
2022-09-12T18:15:26.134Z,49.20
2022-09-12T18:17:55.222Z,49.16
2022-09-12T18:20:22.683Z,49.69
2022-09-12T18:22:50.168Z,49.44
2022-09-12T18:25:17.192Z,49.97
2022-09-12T18:27:50.519Z,49.79
2022-09-12T18:30:21.992Z,49.90
2022-09-12T18:32:50.258Z,50.01
2022-09-12T18:35:17.412Z,50.23
2022-09-12T18:37:45.999Z,50.82
2022-09-12T18:40:13.182Z,50.74
2022-09-12T18:42:41.147Z,50.88
2022-09-12T18:45:09.291Z,50.45
2022-09-12T18:47:37.653Z,51.19
2022-09-12T18:50:06.651Z,51.12
2022-09-12T18:52:40.465Z,51.08
2022-09-12T18:55:07.982Z,51.54
2022-09-12T18:57:39.174Z,51.32
2022-09-12T19:00:12.573Z,51.21
2022-09-12T19:02:40.129Z,51.33
2022-09-12T19:05:07.495Z,51.35
2022-09-12T19:07:35.344Z,51.61
2022-09-12T19:10:04.527Z,51.09
2022-09-12T19:12:39.194Z,51.06
2022-09-12T19:15:07.297Z,51.13
2022-09-12T19:17:37.253Z,51.44
2022-09-12T19:20:06.141Z,51.50
2022-09-12T19:22:38.846Z,51.31
2022-09-12T19:25:07.774Z,51.93
2022-09-12T19:27:38.226Z,51.06
2022-09-12T19:30:06.672Z,51.40
2022-09-12T19:32:37.532Z,51.16
2022-09-12T19:35:06.394Z,51.03
2022-09-12T19:37:34.369Z,51.52
2022-09-12T19:40:05.438Z,51.77
2022-09-12T19:42:32.975Z,51.35
2022-09-12T19:45:01.410Z,51.73
2022-09-12T19:47:28.768Z,51.87
2022-09-12T19:49:57.272Z,52.20
2022-09-12T19:52:24.407Z,52.15
2022-09-12T19:54:51.645Z,52.29
2022-09-12T19:57:18.581Z,51.98
2022-09-12T19:59:46.335Z,51.94
2022-09-12T20:02:13.484Z,52.11
2022-09-12T20:04:40.597Z,52.16
2022-09-12T20:07:08.378Z,52.34
2022-09-12T20:09:36.049Z,52.58
2022-09-12T20:12:04.342Z,52.28
2022-09-12T20:14:31.694Z,52.47
2022-09-12T20:16:58.782Z,52.76
2022-09-12T20:19:25.930Z,52.71
2022-09-12T20:21:52.735Z,52.84
2022-09-12T20:24:19.790Z,52.90
2022-09-12T20:26:46.805Z,53.28
2022-09-12T20:29:14.979Z,53.33
2022-09-12T20:31:43.151Z,53.42
2022-09-12T20:34:21.191Z,53.41
2022-09-12T20:36:48.623Z,53.56
2022-09-12T20:39:19.774Z,53.44
2022-09-12T20:41:47.419Z,53.76
2022-09-12T20:44:14.898Z,53.68
2022-09-12T20:46:44.230Z,53.93
2022-09-12T20:49:11.898Z,53.82
2022-09-12T20:51:39.166Z,54.13
2022-09-12T20:54:07.446Z,54.29
2022-09-12T20:56:37.679Z,54.72
2022-09-12T20:59:05.630Z,55.03
2022-09-12T21:01:33.148Z,55.01
2022-09-12T21:04:01.186Z,54.34
2022-09-12T21:06:28.868Z,54.74
2022-09-12T21:09:00.447Z,54.78
2022-09-12T21:11:28.600Z,55.08
2022-09-12T21:13:55.904Z,54.89
2022-09-12T21:16:23.732Z,55.43
2022-09-12T21:18:59.774Z,55.76
2022-09-12T21:21:27.600Z,55.71
2022-09-12T21:24:04.731Z,55.68
2022-09-12T21:26:32.608Z,55.94
2022-09-12T21:28:59.479Z,55.81
2022-09-12T21:31:26.902Z,56.92
2022-09-12T21:33:54.005Z,56.91
2022-09-12T21:36:20.878Z,56.81
2022-09-12T21:38:48.030Z,56.76
2022-09-12T21:41:17.047Z,56.58
2022-09-12T21:43:44.360Z,57.53
2022-09-12T21:46:11.646Z,56.94
2022-09-12T21:48:38.996Z,56.91
2022-09-12T21:51:06.587Z,56.94
2022-09-12T21:53:33.505Z,57.66
2022-09-12T21:56:07.041Z,57.64
2022-09-12T21:58:34.988Z,58.36
2022-09-12T22:01:02.689Z,58.69
2022-09-12T22:03:30.454Z,59.05
2022-09-12T22:06:03.417Z,58.57
2022-09-12T22:08:33.576Z,58.81
2022-09-12T22:11:03.924Z,59.23
2022-09-12T22:13:32.300Z,59.26
2022-09-12T22:16:02.879Z,59.62
2022-09-12T22:18:32.771Z,60.17
2022-09-12T22:21:08.071Z,59.85
2022-09-12T22:23:53.995Z,60.16
2022-09-12T22:26:21.195Z,60.85
2022-09-12T22:28:48.300Z,60.46
2022-09-12T22:31:16.124Z,60.04
2022-09-12T22:33:43.777Z,60.28
2022-09-12T22:36:10.766Z,60.76
2022-09-12T22:38:38.399Z,61.01
2022-09-12T22:41:11.837Z,61.08
2022-09-12T22:43:39.088Z,60.74
2022-09-12T22:46:12.458Z,61.10
2022-09-12T22:48:40.405Z,61.11
2022-09-12T22:51:08.403Z,61.58
2022-09-12T22:53:36.471Z,61.21
2022-09-12T22:56:05.133Z,61.12
2022-09-12T22:58:36.701Z,61.00
2022-09-12T23:01:06.324Z,60.94
2022-09-12T23:03:34.330Z,61.08
2022-09-12T23:06:01.171Z,61.41
2022-09-12T23:08:29.829Z,61.12
2022-09-12T23:11:11.527Z,61.38
2022-09-12T23:13:44.795Z,61.49
2022-09-12T23:16:22.445Z,61.43
2022-09-12T23:18:49.702Z,61.79
2022-09-12T23:21:19.895Z,61.63
2022-09-12T23:23:47.141Z,62.16
2022-09-12T23:26:24.088Z,62.71
2022-09-12T23:29:00.508Z,62.32
2022-09-12T23:31:31.086Z,62.08
2022-09-12T23:34:02.214Z,62.24
2022-09-12T23:36:30.310Z,62.50
2022-09-12T23:38:58.289Z,62.17
2022-09-12T23:41:25.524Z,62.83
2022-09-12T23:43:52.700Z,62.97
2022-09-12T23:46:20.230Z,62.91
2022-09-12T23:48:47.937Z,62.71
2022-09-12T23:51:16.005Z,63.27
2022-09-12T23:53:42.868Z,63.14
2022-09-12T23:56:10.117Z,62.82
2022-09-12T23:58:37.246Z,63.21
